Time;durP1;ratioP1;P1;durP2;ratioP2;P2;SDS_P1;SDS_P2;PMS_P1;PMS_P2;Temp;Humidity;BMP_temperature;BMP_pressure;BME280_temperature;BME280_humidity;BME280_pressure;Samples;Min_cycle;Max_cycle;Signal;HPM_P1;HPM_P2
2022/06/17 00:00:56;;;;;;;8.73;3.78;;;24.20;99.90;;;;;;5055739;28;20040;-79
2022/06/17 00:03:25;;;;;;;15.45;3.22;;;24.10;99.90;;;;;;5055455;28;20025;-82
2022/06/17 00:05:52;;;;;;;11.48;3.80;;;24.10;99.90;;;;;;5055605;28;20158;-80
2022/06/17 00:08:20;;;;;;;9.50;3.83;;;24.10;99.90;;;;;;5055960;28;20025;-79
2022/06/17 00:10:46;;;;;;;8.23;3.35;;;24.10;99.90;;;;;;5055771;28;20047;-79
2022/06/17 00:13:15;;;;;;;9.63;3.40;;;24.10;99.90;;;;;;5055516;28;20040;-79
2022/06/17 00:15:41;;;;;;;10.68;3.38;;;24.20;99.90;;;;;;5055457;28;20021;-80
2022/06/17 00:18:08;;;;;;;11.77;3.60;;;24.10;99.90;;;;;;5054223;28;20506;-79
2022/06/17 00:20:35;;;;;;;10.10;2.85;;;24.10;99.90;;;;;;5055207;28;20027;-82
2022/06/17 00:23:02;;;;;;;9.52;2.97;;;24.20;99.90;;;;;;5055062;28;20033;-79
2022/06/17 00:25:34;;;;;;;13.18;2.95;;;24.20;99.90;;;;;;5055164;28;20102;-82
2022/06/17 00:28:00;;;;;;;7.65;2.47;;;24.20;99.90;;;;;;5055226;28;20029;-82
2022/06/17 00:30:30;;;;;;;5.70;2.65;;;24.30;99.90;;;;;;5055266;28;20438;-83
2022/06/17 00:32:59;;;;;;;6.72;2.63;;;24.30;99.90;;;;;;5055079;28;20025;-80
2022/06/17 00:35:29;;;;;;;8.68;2.20;;;24.40;99.90;;;;;;5055035;28;20039;-81
2022/06/17 00:37:55;;;;;;;7.68;2.42;;;24.50;99.90;;;;;;5055041;28;20474;-80
2022/06/17 00:40:26;;;;;;;5.15;2.50;;;24.50;99.90;;;;;;5054876;28;20052;-77
2022/06/17 00:42:52;;;;;;;9.60;2.83;;;24.40;99.90;;;;;;5055037;28;20445;-78
2022/06/17 00:45:29;;;;;;;6.65;2.70;;;24.40;99.90;;;;;;5053782;28;20029;-78
2022/06/17 00:48:04;;;;;;;6.72;2.72;;;24.30;99.90;;;;;;5054827;28;20432;-79
2022/06/17 00:50:35;;;;;;;5.80;2.80;;;24.40;99.90;;;;;;5054818;28;20017;-79
2022/06/17 00:53:18;;;;;;;4.10;2.42;;;24.30;99.90;;;;;;5054771;28;20039;-80
2022/06/17 00:55:46;;;;;;;8.63;2.65;;;24.30;99.90;;;;;;5054223;28;20041;-80
2022/06/17 00:58:22;;;;;;;6.82;2.70;;;24.30;99.90;;;;;;5053343;28;20463;-80
2022/06/17 01:00:53;;;;;;;3.85;2.65;;;24.30;99.90;;;;;;5054341;28;20036;-80
2022/06/17 01:03:33;;;;;;;8.13;2.97;;;24.30;99.90;;;;;;5054737;28;20047;-81
2022/06/17 01:06:08;;;;;;;7.63;2.80;;;24.40;99.90;;;;;;5054131;28;20124;-79
2022/06/17 01:11:31;;;;;;;8.50;2.95;;;24.40;99.90;;;;;;5054709;28;20499;-80
2022/06/17 01:13:59;;;;;;;8.40;3.20;;;24.40;99.90;;;;;;5054134;28;20083;-79
2022/06/17 01:16:33;;;;;;;6.15;2.50;;;24.50;99.90;;;;;;5054140;28;20028;-79
2022/06/17 01:19:08;;;;;;;6.15;3.15;;;24.50;99.90;;;;;;5054040;28;20027;-79
2022/06/17 01:21:43;;;;;;;6.97;2.42;;;24.50;99.90;;;;;;5054081;28;20387;-81
2022/06/17 01:24:10;;;;;;;4.97;2.58;;;24.50;99.90;;;;;;5052849;28;20025;-83
2022/06/17 01:26:36;;;;;;;11.80;2.72;;;24.50;99.90;;;;;;5053573;28;20033;-80
2022/06/17 01:29:02;;;;;;;10.80;2.85;;;24.40;99.80;;;;;;5052517;28;20086;-80
2022/06/17 01:31:28;;;;;;;8.23;2.72;;;24.40;99.80;;;;;;5052975;28;20044;-80
2022/06/17 01:33:54;;;;;;;14.05;2.85;;;24.40;99.90;;;;;;5053301;28;20017;-80
2022/06/17 01:36:22;;;;;;;6.65;2.20;;;24.40;99.80;;;;;;5053867;28;20070;-80
2022/06/17 01:38:52;;;;;;;7.82;2.72;;;24.40;99.80;;;;;;5053642;28;20025;-81
2022/06/17 01:41:22;;;;;;;7.15;3.28;;;24.40;99.90;;;;;;5053690;28;20048;-81
2022/06/17 01:43:55;;;;;;;18.90;3.03;;;24.40;99.90;;;;;;5053799;28;20021;-80
2022/06/17 01:46:31;;;;;;;10.98;3.05;;;24.30;99.90;;;;;;5052745;28;20391;-80
2022/06/17 01:49:06;;;;;;;5.88;2.35;;;24.30;99.90;;;;;;5053556;28;20071;-81
2022/06/17 01:51:36;;;;;;;4.53;2.30;;;24.30;99.90;;;;;;5053132;28;20017;-83
2022/06/17 01:54:08;;;;;;;4.07;2.42;;;24.30;99.90;;;;;;5053039;28;20025;-81
2022/06/17 01:56:36;;;;;;;5.72;2.72;;;24.30;99.70;;;;;;5052994;28;20445;-80
2022/06/17 01:59:32;;;;;;;5.65;2.65;;;24.30;99.50;;;;;;5053301;28;20514;-81
2022/06/17 02:02:01;;;;;;;9.13;2.80;;;24.40;99.40;;;;;;5052663;28;20052;-86
2022/06/17 02:04:33;;;;;;;9.77;2.92;;;24.30;99.30;;;;;;5053104;28;20025;-80
2022/06/17 02:07:04;;;;;;;13.32;2.67;;;24.30;99.40;;;;;;5052935;28;20033;-84
2022/06/17 02:09:30;;;;;;;8.25;2.72;;;24.30;99.30;;;;;;5051678;28;20029;-80
2022/06/17 02:11:59;;;;;;;13.00;2.55;;;24.30;99.20;;;;;;5052443;28;20467;-83
2022/06/17 02:14:25;;;;;;;11.00;2.83;;;24.30;99.40;;;;;;5053048;28;20025;-80
2022/06/17 02:16:54;;;;;;;6.70;2.20;;;24.30;99.20;;;;;;5052891;28;20088;-80
2022/06/17 02:19:24;;;;;;;3.65;2.35;;;24.30;99.00;;;;;;5052855;28;20375;-81
2022/06/17 02:22:24;;;;;;;6.35;2.30;;;24.30;98.80;;;;;;5052692;28;20028;-80
2022/06/17 02:24:53;;;;;;;6.97;2.78;;;24.30;98.70;;;;;;5047662;28;20068;-80
2022/06/17 02:27:20;;;;;;;4.35;2.53;;;24.30;98.40;;;;;;5041978;28;20069;-86
2022/06/17 02:29:47;;;;;;;8.60;2.50;;;24.50;97.50;;;;;;5045443;28;20053;-80
2022/06/17 02:32:14;;;;;;;6.30;2.00;;;24.60;97.20;;;;;;5047396;28;20028;-81
2022/06/17 02:35:01;;;;;;;8.15;2.30;;;24.70;97.00;;;;;;5052927;28;20017;-85
2022/06/17 02:37:29;;;;;;;4.10;2.17;;;24.80;97.10;;;;;;5052824;28;20027;-84
2022/06/17 02:39:57;;;;;;;11.88;3.00;;;24.80;97.00;;;;;;5051349;28;20121;-80
2022/06/17 02:42:28;;;;;;;4.03;2.35;;;24.90;97.40;;;;;;5047230;28;20029;-84
2022/06/17 02:45:10;;;;;;;8.45;2.30;;;24.70;97.80;;;;;;5048680;28;20025;-79
2022/06/17 02:47:38;;;;;;;6.55;2.45;;;24.70;98.10;;;;;;5045450;28;20040;-85
2022/06/17 02:50:04;;;;;;;7.65;2.35;;;24.50;98.30;;;;;;5038513;28;20108;-84
2022/06/17 02:52:36;;;;;;;10.70;2.95;;;24.40;98.50;;;;;;5037790;28;20040;-81
2022/06/17 02:55:07;;;;;;;12.05;2.95;;;24.30;98.70;;;;;;5037996;28;20094;-79
2022/06/17 02:57:33;;;;;;;4.65;2.58;;;24.30;98.90;;;;;;5039385;28;20112;-83
2022/06/17 03:00:28;;;;;;;5.25;2.17;;;24.20;99.00;;;;;;5044557;28;20112;-80
2022/06/17 03:03:00;;;;;;;10.80;2.63;;;24.10;99.00;;;;;;5052448;28;20025;-80
2022/06/17 03:05:30;;;;;;;13.13;2.75;;;24.10;98.90;;;;;;5052409;28;20025;-81
2022/06/17 03:07:57;;;;;;;8.15;2.67;;;24.10;99.20;;;;;;5052300;28;20033;-85
2022/06/17 03:10:36;;;;;;;5.97;2.58;;;24.10;99.30;;;;;;5045582;28;20082;-83
2022/06/17 03:13:09;;;;;;;6.60;2.92;;;24.10;99.10;;;;;;5042488;28;20025;-83
2022/06/17 03:15:39;;;;;;;7.80;2.20;;;24.10;98.90;;;;;;5045824;28;20029;-80
2022/06/17 03:18:05;;;;;;;6.15;2.70;;;24.10;98.80;;;;;;5033210;28;20030;-81
2022/06/17 03:20:36;;;;;;;4.80;2.38;;;24.10;98.70;;;;;;5032633;28;20033;-85
2022/06/17 03:23:12;;;;;;;8.27;2.63;;;24.10;98.70;;;;;;5034190;28;20375;-80
2022/06/17 03:25:47;;;;;;;7.15;2.78;;;24.10;98.60;;;;;;5036134;28;20086;-84
2022/06/17 03:28:18;;;;;;;4.82;2.53;;;24.10;98.70;;;;;;5036612;28;20018;-80
2022/06/17 03:31:06;;;;;;;7.22;2.80;;;24.10;98.50;;;;;;5045434;28;20036;-80
2022/06/17 03:33:44;;;;;;;10.77;2.45;;;24.10;98.60;;;;;;5055419;28;20374;-84
2022/06/17 03:36:19;;;;;;;10.55;2.78;;;24.10;98.70;;;;;;5056338;28;20028;-80
2022/06/17 03:38:49;;;;;;;4.53;2.78;;;24.10;98.70;;;;;;5056046;28;20040;-79
2022/06/17 03:41:22;;;;;;;6.97;2.40;;;24.10;98.80;;;;;;5056106;28;20025;-80
2022/06/17 03:44:05;;;;;;;6.60;2.78;;;24.00;98.80;;;;;;5055833;28;20463;-80
2022/06/17 03:46:43;;;;;;;9.43;2.47;;;24.00;98.80;;;;;;5054467;28;20083;-81
2022/06/17 03:49:23;;;;;;;10.80;2.58;;;23.90;98.70;;;;;;5056300;28;20021;-83
2022/06/17 03:51:53;;;;;;;5.28;2.60;;;24.00;98.70;;;;;;5055979;28;20013;-85
2022/06/17 03:54:19;;;;;;;5.07;2.97;;;23.90;98.60;;;;;;5055817;28;20032;-79
2022/06/17 03:56:50;;;;;;;5.05;2.53;;;23.90;98.50;;;;;;5055698;28;20049;-83
2022/06/17 03:59:20;;;;;;;5.45;2.28;;;23.90;98.60;;;;;;5055633;28;20079;-82
2022/06/17 04:01:56;;;;;;;7.20;2.53;;;23.90;98.30;;;;;;5055646;28;20386;-84
2022/06/17 04:04:26;;;;;;;5.68;2.83;;;24.00;98.40;;;;;;5055803;28;20025;-84
2022/06/17 04:06:55;;;;;;;6.93;2.70;;;24.00;98.30;;;;;;5055603;28;20037;-84
2022/06/17 04:09:27;;;;;;;6.28;3.00;;;24.10;98.20;;;;;;5055388;28;20108;-84
2022/06/17 04:11:58;;;;;;;6.78;2.92;;;24.10;98.10;;;;;;5055326;28;20033;-83
2022/06/17 04:14:44;;;;;;;6.50;2.40;;;24.20;97.90;;;;;;5055335;28;20095;-80
2022/06/17 04:17:15;;;;;;;6.30;2.70;;;24.30;97.80;;;;;;5055527;28;20025;-80
2022/06/17 04:19:44;;;;;;;5.82;2.38;;;24.40;97.60;;;;;;5055362;28;20087;-81
2022/06/17 04:22:25;;;;;;;7.03;2.50;;;24.60;97.30;;;;;;5055225;28;20070;-81
2022/06/17 04:25:00;;;;;;;5.50;3.00;;;24.80;97.00;;;;;;5054860;28;20565;-82
2022/06/17 04:27:56;;;;;;;9.52;3.08;;;25.00;96.60;;;;;;5055017;28;20040;-84
2022/06/17 04:30:20;;;;;;;8.30;2.80;;;25.20;96.50;;;;;;5054825;28;20035;-80
2022/06/17 04:32:49;;;;;;;7.65;2.75;;;25.40;96.00;;;;;;5055001;28;20475;-82
2022/06/17 04:35:15;;;;;;;3.88;2.47;;;25.40;95.90;;;;;;5054432;28;20024;-85
2022/06/17 04:37:41;;;;;;;6.00;2.78;;;25.60;95.30;;;;;;5053627;28;20479;-80
2022/06/17 04:40:35;;;;;;;6.72;2.97;;;25.60;95.20;;;;;;5055348;28;20031;-83
2022/06/17 04:43:33;;;;;;;9.55;2.67;;;25.80;95.20;;;;;;5054531;28;20103;-86
2022/06/17 04:46:10;;;;;;;7.22;2.58;;;26.00;94.60;;;;;;5053833;28;20079;-83
2022/06/17 04:48:36;;;;;;;12.70;2.72;;;26.30;94.10;;;;;;5054410;28;20033;-80
2022/06/17 04:51:04;;;;;;;9.73;3.03;;;26.70;93.60;;;;;;5054162;28;20053;-84
2022/06/17 04:53:32;;;;;;;9.88;2.92;;;27.10;93.30;;;;;;5054804;28;20021;-80
2022/06/17 04:55:59;;;;;;;8.98;2.67;;;27.20;92.80;;;;;;5054416;28;20443;-81
2022/06/17 04:58:26;;;;;;;6.00;2.50;;;27.80;92.60;;;;;;5053268;28;20379;-84
2022/06/17 05:00:55;;;;;;;4.00;2.25;;;28.30;92.00;;;;;;5054470;28;20545;-81
2022/06/17 05:03:26;;;;;;;5.97;2.30;;;28.70;91.40;;;;;;5054389;28;20029;-85
2022/06/17 05:05:52;;;;;;;4.30;2.33;;;29.20;90.30;;;;;;5054229;28;20356;-81
2022/06/17 05:08:25;;;;;;;8.45;2.47;;;29.60;90.30;;;;;;5054477;28;20040;-85
2022/06/17 05:11:05;;;;;;;2.63;1.90;;;30.00;89.20;;;;;;5054527;28;20025;-82
2022/06/17 05:13:36;;;;;;;6.25;2.35;;;30.40;87.90;;;;;;5054116;28;20463;-84
2022/06/17 05:16:02;;;;;;;5.10;1.75;;;30.70;86.60;;;;;;5054220;28;20483;-80
2022/06/17 05:18:27;;;;;;;13.20;2.42;;;31.10;86.00;;;;;;5054220;28;20029;-84
2022/06/17 05:20:53;;;;;;;8.15;2.22;;;31.40;84.70;;;;;;5054301;28;20029;-86
2022/06/17 05:23:19;;;;;;;6.95;2.25;;;31.30;84.40;;;;;;5053968;28;20074;-81
2022/06/17 05:25:48;;;;;;;5.43;2.30;;;31.20;83.80;;;;;;5054179;28;20437;-80
2022/06/17 05:28:17;;;;;;;7.50;2.42;;;31.00;84.40;;;;;;5054002;28;20398;-86
2022/06/17 05:30:51;;;;;;;4.47;2.15;;;30.60;84.90;;;;;;5053613;28;20028;-79
2022/06/17 05:33:17;;;;;;;10.30;2.60;;;30.10;85.50;;;;;;5053117;28;20029;-79
2022/06/17 05:35:43;;;;;;;9.40;2.60;;;30.20;86.00;;;;;;5053192;28;20021;-81
2022/06/17 05:38:09;;;;;;;14.90;2.28;;;30.20;86.30;;;;;;5053295;28;20067;-80
2022/06/17 05:40:35;;;;;;;7.10;2.45;;;30.10;86.20;;;;;;5053195;28;20071;-85
2022/06/17 05:43:01;;;;;;;10.52;2.75;;;29.80;85.60;;;;;;5053665;28;20025;-81
2022/06/17 05:45:27;;;;;;;6.93;2.47;;;29.60;86.40;;;;;;5053088;28;20051;-79
2022/06/17 05:47:53;;;;;;;7.55;2.85;;;29.40;86.80;;;;;;5053000;28;21011;-78
2022/06/17 05:50:20;;;;;;;12.50;2.95;;;29.20;87.30;;;;;;5052254;28;20032;-80
2022/06/17 05:52:51;;;;;;;12.73;2.58;;;29.00;88.00;;;;;;5050820;28;20112;-79
2022/06/17 05:55:18;;;;;;;7.07;2.60;;;29.10;89.00;;;;;;5053453;28;20096;-79
2022/06/17 05:57:44;;;;;;;9.70;2.70;;;29.80;89.10;;;;;;5051875;28;20025;-82
2022/06/17 06:00:10;;;;;;;10.70;2.83;;;30.70;87.20;;;;;;5052017;28;20431;-82
2022/06/17 06:02:36;;;;;;;11.45;2.58;;;32.10;83.40;;;;;;5052461;28;20424;-80
2022/06/17 06:05:03;;;;;;;20.48;2.90;;;32.80;81.00;;;;;;5053271;28;20079;-80
2022/06/17 06:07:28;;;;;;;14.43;2.20;;;32.80;80.30;;;;;;5052812;28;20505;-80
2022/06/17 06:09:54;;;;;;;10.65;3.45;;;32.70;80.70;;;;;;5053080;28;20029;-80
2022/06/17 06:12:20;;;;;;;8.07;2.35;;;32.60;79.90;;;;;;5051318;28;20434;-80
2022/06/17 06:14:46;;;;;;;11.32;2.35;;;32.40;80.10;;;;;;5052863;28;20045;-80
2022/06/17 06:17:12;;;;;;;8.25;2.60;;;32.60;79.90;;;;;;5053082;28;20474;-84
2022/06/17 06:19:37;;;;;;;15.35;2.47;;;33.00;79.50;;;;;;5052942;28;20390;-79
2022/06/17 06:22:04;;;;;;;8.38;2.50;;;33.30;79.10;;;;;;5053230;28;20435;-80
2022/06/17 06:24:29;;;;;;;14.60;2.90;;;34.10;77.00;;;;;;5052968;28;20484;-80
2022/06/17 06:26:55;;;;;;;13.27;2.38;;;35.10;75.90;;;;;;5052435;28;20072;-82
2022/06/17 06:29:21;;;;;;;6.10;2.33;;;36.10;73.10;;;;;;5052539;28;20021;-81
2022/06/17 06:31:48;;;;;;;13.70;2.85;;;36.50;71.40;;;;;;5052965;28;20051;-81
2022/06/17 06:34:16;;;;;;;12.90;2.47;;;37.10;70.70;;;;;;5052915;28;20467;-80
2022/06/17 06:36:42;;;;;;;5.43;2.33;;;37.40;69.60;;;;;;5052765;28;20029;-82
2022/06/17 06:39:09;;;;;;;10.10;3.15;;;37.50;68.50;;;;;;5052777;28;20104;-83
2022/06/17 06:41:35;;;;;;;3.72;1.90;;;37.40;68.00;;;;;;5052593;28;20029;-83
2022/06/17 06:44:01;;;;;;;8.80;2.40;;;37.10;67.30;;;;;;5051913;28;20036;-82
2022/06/17 06:46:27;;;;;;;5.90;2.40;;;36.60;68.60;;;;;;5052280;28;20048;-81
2022/06/17 06:48:53;;;;;;;5.10;2.03;;;36.10;68.80;;;;;;5052674;28;20025;-84
2022/06/17 06:51:21;;;;;;;15.02;2.10;;;35.30;70.70;;;;;;5051334;28;20036;-87
2022/06/17 06:53:47;;;;;;;5.93;2.28;;;35.00;71.20;;;;;;5052406;28;20013;-85
2022/06/17 06:56:12;;;;;;;5.25;2.33;;;34.70;72.40;;;;;;5052375;28;20052;-80
2022/06/17 06:58:38;;;;;;;9.48;2.40;;;34.20;73.40;;;;;;5052315;28;20052;-84
2022/06/17 07:01:04;;;;;;;8.30;2.25;;;33.70;74.40;;;;;;5052351;28;20036;-83
2022/06/17 07:03:30;;;;;;;7.75;2.17;;;33.50;75.50;;;;;;5052687;28;20086;-80
2022/06/17 07:05:59;;;;;;;14.15;2.20;;;33.20;74.70;;;;;;5052571;28;20029;-82
2022/06/17 07:08:28;;;;;;;5.68;2.15;;;32.80;75.80;;;;;;5052999;28;20021;-82
2022/06/17 07:10:56;;;;;;;8.40;2.50;;;32.60;75.80;;;;;;5052500;28;20021;-83
2022/06/17 07:13:22;;;;;;;8.63;2.38;;;32.30;75.90;;;;;;5052786;28;20036;-84
2022/06/17 07:15:49;;;;;;;12.50;2.85;;;32.20;77.00;;;;;;5052550;28;20033;-80
2022/06/17 07:18:18;;;;;;;7.38;2.42;;;32.40;77.10;;;;;;5052419;28;20063;-81
2022/06/17 07:20:47;;;;;;;4.30;2.38;;;32.30;76.10;;;;;;5052335;28;20025;-81
2022/06/17 07:23:23;;;;;;;9.95;2.67;;;32.30;77.00;;;;;;5051310;28;20454;-83
2022/06/17 07:25:49;;;;;;;9.10;2.50;;;32.10;76.20;;;;;;5052144;28;20052;-83
2022/06/17 07:28:18;;;;;;;5.70;2.38;;;32.00;76.70;;;;;;5052469;28;20029;-81
2022/06/17 07:30:47;;;;;;;6.38;2.47;;;31.90;76.60;;;;;;5052515;28;20462;-81
2022/06/17 07:33:13;;;;;;;8.05;2.80;;;31.90;76.60;;;;;;5051912;28;20353;-83
2022/06/17 07:35:41;;;;;;;6.97;2.45;;;31.90;76.90;;;;;;5051804;28;20025;-82
2022/06/17 07:40:57;;;;;;;4.63;2.63;;;31.90;76.70;;;;;;5052011;28;20078;-82
2022/06/17 07:43:23;;;;;;;6.25;2.40;;;31.90;77.30;;;;;;5052129;28;20025;-85
2022/06/17 07:45:49;;;;;;;22.00;3.55;;;31.80;76.90;;;;;;5051804;28;20032;-82
2022/06/17 07:48:15;;;;;;;7.07;2.63;;;31.80;76.80;;;;;;5051934;28;20049;-82
2022/06/17 07:50:43;;;;;;;9.10;2.88;;;31.90;74.70;;;;;;5051619;28;20024;-81
2022/06/17 07:53:10;;;;;;;11.13;2.63;;;31.70;75.10;;;;;;5050314;28;20013;-90
2022/06/17 07:55:35;;;;;;;8.45;2.88;;;31.70;74.70;;;;;;5050914;28;20079;-82
2022/06/17 07:58:01;;;;;;;11.65;2.70;;;31.80;74.10;;;;;;5051830;28;20060;-81
2022/06/17 08:00:36;;;;;;;7.80;2.53;;;31.90;73.90;;;;;;5051987;28;20425;-85
2022/06/17 08:03:04;;;;;;;10.25;2.67;;;31.80;73.50;;;;;;5051629;28;20103;-80
2022/06/17 08:05:30;;;;;;;8.10;2.60;;;31.90;73.60;;;;;;5051731;28;20020;-84
2022/06/17 08:07:56;;;;;;;20.73;3.40;;;32.10;73.10;;;;;;5050346;28;20441;-81
2022/06/17 08:10:28;;;;;;;6.13;2.60;;;32.20;73.40;;;;;;5053198;28;20025;-83
2022/06/17 08:12:54;;;;;;;15.50;2.42;;;32.30;71.80;;;;;;5054998;28;20031;-81
2022/06/17 08:15:20;;;;;;;9.43;2.33;;;32.50;70.50;;;;;;5054459;28;20024;-78
2022/06/17 08:17:47;;;;;;;7.95;2.40;;;32.60;71.80;;;;;;5053746;28;20013;-82
2022/06/17 08:20:28;;;;;;;8.77;2.35;;;32.70;70.20;;;;;;5054131;28;20021;-79
2022/06/17 08:22:53;;;;;;;11.07;2.75;;;32.60;70.10;;;;;;5053867;28;20386;-82
2022/06/17 08:25:20;;;;;;;5.20;2.28;;;32.60;70.00;;;;;;5054307;28;20028;-79
2022/06/17 08:27:55;;;;;;;4.15;2.00;;;32.70;69.50;;;;;;5054460;28;20552;-79
2022/06/17 08:30:25;;;;;;;11.40;2.83;;;32.80;68.80;;;;;;5054155;28;20028;-82
2022/06/17 08:32:55;;;;;;;10.93;2.50;;;32.80;68.60;;;;;;5050902;28;20017;-80
2022/06/17 08:35:37;;;;;;;8.20;2.47;;;32.80;68.30;;;;;;5052830;28;20467;-78
2022/06/17 08:38:10;;;;;;;7.63;2.35;;;32.70;68.70;;;;;;5035876;28;20395;-82
2022/06/17 08:40:54;;;;;;;3.95;2.13;;;32.70;68.60;;;;;;5051849;28;20127;-80
2022/06/17 08:43:22;;;;;;;13.63;2.75;;;32.70;67.90;;;;;;5050845;28;20541;-79
2022/06/17 08:46:06;;;;;;;10.18;2.53;;;32.60;67.90;;;;;;5054164;28;20071;-79
2022/06/17 08:48:52;;;;;;;5.30;2.10;;;32.60;66.60;;;;;;5053635;28;20079;-81
2022/06/17 08:51:36;;;;;;;22.52;2.88;;;32.60;68.00;;;;;;5051669;28;20064;-80
2022/06/17 08:54:10;;;;;;;8.20;2.72;;;32.60;66.60;;;;;;5052476;28;20017;-83
2022/06/17 08:57:10;;;;;;;8.55;2.45;;;32.50;66.60;;;;;;5050911;28;20049;-79
2022/06/17 08:59:45;;;;;;;11.30;2.80;;;32.60;67.80;;;;;;5037791;28;20021;-80
2022/06/17 09:02:21;;;;;;;26.52;2.47;;;32.30;67.20;;;;;;5052531;28;20138;-84
2022/06/17 09:05:13;;;;;;;13.30;2.35;;;32.10;68.20;;;;;;5052209;28;20066;-79
2022/06/17 09:07:54;;;;;;;12.77;2.92;;;32.30;68.20;;;;;;5052536;28;20040;-78
2022/06/17 09:10:32;;;;;;;11.30;2.28;;;32.50;68.40;;;;;;5051696;28;20417;-79
2022/06/17 09:13:09;;;;;;;11.23;2.08;;;32.60;67.90;;;;;;5053444;28;20181;-81
2022/06/17 09:15:41;;;;;;;12.75;2.50;;;32.70;66.70;;;;;;5054190;28;20028;-79
2022/06/17 09:18:26;;;;;;;11.60;2.72;;;32.90;67.10;;;;;;5054330;28;20082;-79
2022/06/17 09:20:57;;;;;;;11.20;2.45;;;32.90;66.80;;;;;;5054167;28;20096;-78
2022/06/17 09:23:28;;;;;;;3.65;1.70;;;32.80;66.20;;;;;;5054342;28;20024;-83
2022/06/17 09:25:55;;;;;;;9.07;2.53;;;32.90;66.40;;;;;;5052847;28;20033;-78
2022/06/17 09:28:37;;;;;;;5.82;1.98;;;32.80;67.10;;;;;;5053125;28;20017;-79
2022/06/17 09:31:13;;;;;;;11.05;2.33;;;32.90;65.90;;;;;;5054145;28;20471;-77
2022/06/17 09:33:55;;;;;;;7.05;2.17;;;32.80;66.20;;;;;;5053814;28;20032;-79
2022/06/17 09:36:40;;;;;;;;;;;32.90;66.90;;;;;;5054350;28;20021;-80
2022/06/17 09:39:14;;;;;;;8.85;2.50;;;33.10;66.50;;;;;;5048798;28;20283;-85
2022/06/17 09:41:51;;;;;;;7.53;2.30;;;33.30;65.70;;;;;;5053892;28;20434;-81
2022/06/17 09:44:39;;;;;;;6.78;2.70;;;33.30;65.30;;;;;;5051987;28;20112;-78
2022/06/17 09:47:18;;;;;;;4.97;1.85;;;33.40;65.30;;;;;;5053271;28;20025;-80
2022/06/17 09:49:51;;;;;;;5.07;2.20;;;33.50;65.20;;;;;;5053324;28;20028;-80
2022/06/17 09:52:28;;;;;;;9.30;2.38;;;33.70;65.50;;;;;;5053929;28;20029;-78
2022/06/17 09:55:02;;;;;;;8.60;2.30;;;33.80;65.60;;;;;;5053375;28;20053;-80
2022/06/17 09:57:39;;;;;;;10.20;2.33;;;33.90;64.50;;;;;;5053835;28;20021;-79
2022/06/17 10:00:08;;;;;;;11.80;2.35;;;33.90;64.70;;;;;;5054172;28;20421;-78
2022/06/17 10:03:06;;;;;;;6.47;1.95;;;33.90;63.30;;;;;;5053548;28;20028;-80
2022/06/17 10:05:39;;;;;;;7.30;2.38;;;33.90;62.80;;;;;;5053399;28;20025;-78
2022/06/17 10:08:26;;;;;;;7.70;2.20;;;33.90;63.40;;;;;;5052905;28;20044;-79
2022/06/17 10:11:21;;;;;;;6.00;2.20;;;33.90;63.70;;;;;;5053774;28;20429;-78
2022/06/17 10:14:06;;;;;;;10.98;2.13;;;34.00;63.00;;;;;;5052925;28;20017;-80
2022/06/17 10:19:43;;;;;;;8.93;2.20;;;33.90;62.70;;;;;;5053313;28;20036;-77
2022/06/17 10:22:36;;;;;;;9.38;2.25;;;33.90;61.00;;;;;;5053336;28;20052;-82
2022/06/17 10:25:35;;;;;;;6.13;1.73;;;33.80;61.70;;;;;;5053155;28;20065;-79
2022/06/17 10:28:23;;;;;;;8.73;1.88;;;33.80;60.70;;;;;;5052601;28;20036;-79
2022/06/17 10:31:03;;;;;;;8.35;1.80;;;33.60;60.90;;;;;;5053091;28;20419;-78
2022/06/17 10:33:33;;;;;;;8.68;2.55;;;33.70;60.70;;;;;;5052513;28;20025;-84
2022/06/17 10:35:59;;;;;;;5.40;2.10;;;33.80;62.10;;;;;;5053110;28;20025;-84
2022/06/17 10:38:35;;;;;;;6.47;1.98;;;33.80;59.80;;;;;;5053054;28;20034;-78
2022/06/17 10:41:01;;;;;;;9.38;2.17;;;33.70;60.50;;;;;;5052712;28;20025;-80
2022/06/17 10:43:48;;;;;;;7.72;2.17;;;33.80;60.90;;;;;;5052997;28;20031;-80
2022/06/17 10:46:27;;;;;;;7.28;2.38;;;33.80;61.40;;;;;;5052962;28;20040;-80
2022/06/17 10:49:22;;;;;;;4.93;2.00;;;33.90;60.30;;;;;;5051423;28;20021;-79
2022/06/17 10:51:51;;;;;;;4.70;2.28;;;33.80;61.50;;;;;;5052120;28;20037;-78
2022/06/17 10:54:21;;;;;;;8.30;2.10;;;34.00;60.50;;;;;;5052694;28;20111;-78
2022/06/17 10:57:05;;;;;;;9.75;2.35;;;34.20;60.20;;;;;;5052891;28;20433;-84
2022/06/17 10:59:36;;;;;;;5.82;2.00;;;34.30;58.50;;;;;;5051439;28;20116;-79
2022/06/17 11:02:03;;;;;;;7.50;2.33;;;34.20;58.30;;;;;;5051385;28;20100;-82
2022/06/17 11:04:35;;;;;;;6.97;2.20;;;34.20;58.00;;;;;;5051059;28;20025;-78
2022/06/17 11:07:31;;;;;;;18.10;2.38;;;34.30;58.50;;;;;;5048479;28;20494;-78
2022/06/17 11:10:15;;;;;;;7.10;2.47;;;34.30;58.20;;;;;;5032666;28;20032;-84
2022/06/17 11:13:02;;;;;;;8.20;1.92;;;34.40;58.30;;;;;;5044896;28;20071;-79
2022/06/17 11:15:29;;;;;;;5.90;2.33;;;34.50;58.50;;;;;;5047421;28;20087;-78
2022/06/17 11:17:59;;;;;;;7.22;2.17;;;34.50;59.40;;;;;;5051402;28;20107;-78
2022/06/17 11:20:28;;;;;;;5.75;2.13;;;34.60;59.30;;;;;;5048371;28;20043;-78
2022/06/17 11:22:54;;;;;;;8.70;2.00;;;34.70;58.60;;;;;;5052545;28;20029;-77
2022/06/17 11:25:22;;;;;;;11.35;2.03;;;34.70;58.50;;;;;;5052242;28;20379;-79
2022/06/17 11:28:07;;;;;;;6.97;2.17;;;34.50;57.70;;;;;;5048406;28;20391;-80
2022/06/17 11:30:34;;;;;;;22.00;2.50;;;34.40;57.70;;;;;;5051904;28;20372;-78
2022/06/17 11:33:01;;;;;;;4.80;2.03;;;34.40;59.30;;;;;;5051878;28;20021;-78
2022/06/17 11:35:32;;;;;;;8.23;2.15;;;34.40;59.50;;;;;;5052196;28;20375;-78
2022/06/17 11:38:00;;;;;;;8.07;2.35;;;34.30;60.80;;;;;;5050173;28;20029;-79
2022/06/17 11:40:30;;;;;;;7.97;1.90;;;34.30;59.30;;;;;;5031315;28;20423;-78
2022/06/17 11:43:03;;;;;;;8.38;2.95;;;34.20;59.10;;;;;;5032474;28;20034;-79
2022/06/17 11:45:31;;;;;;;4.78;1.92;;;34.10;59.20;;;;;;5036235;28;20029;-79
2022/06/17 11:48:19;;;;;;;10.52;2.08;;;34.10;59.20;;;;;;5054597;28;20037;-78
2022/06/17 11:51:14;;;;;;;6.80;2.08;;;34.00;59.00;;;;;;5043024;28;20025;-78
2022/06/17 11:54:17;;;;;;;5.88;1.95;;;34.10;60.20;;;;;;5052261;28;20024;-78
2022/06/17 11:56:48;;;;;;;7.88;2.20;;;34.10;62.20;;;;;;5047701;28;20491;-78
2022/06/17 11:59:19;;;;;;;;;;;34.10;63.80;;;;;;5055827;28;20534;-80
2022/06/17 12:02:06;;;;;;;5.45;2.35;;;34.10;67.20;;;;;;5055452;28;19999;-78
2022/06/17 12:04:50;;;;;;;7.15;3.13;;;34.10;69.80;;;;;;5053230;28;20536;-83
2022/06/17 12:07:45;;;;;;;7.35;1.88;;;34.20;69.90;;;;;;5054578;28;20029;-81
2022/06/17 12:10:49;;;;;;;8.82;2.25;;;34.30;68.40;;;;;;5047419;28;20103;-79
2022/06/17 12:13:21;;;;;;;11.00;2.22;;;34.20;66.70;;;;;;5044692;28;20375;-84
2022/06/17 12:16:15;;;;;;;12.07;2.15;;;34.20;64.20;;;;;;5034327;28;20368;-80
2022/06/17 12:18:51;;;;;;;8.70;2.30;;;34.10;63.60;;;;;;5034245;28;20037;-81
2022/06/17 12:21:30;;;;;;;5.20;2.63;;;34.00;64.90;;;;;;5035492;28;20013;-78
2022/06/17 12:24:29;;;;;;;13.48;2.67;;;34.00;66.90;;;;;;5036101;28;20090;-83
2022/06/17 12:27:02;;;;;;;9.40;3.25;;;34.00;67.30;;;;;;5052733;28;21707;-79
2022/06/17 12:29:58;;;;;;;12.80;3.10;;;34.00;66.50;;;;;;5053414;28;20025;-78
2022/06/17 12:32:49;;;;;;;6.00;2.35;;;33.80;67.70;;;;;;5039249;28;20030;-78
2022/06/17 12:35:49;;;;;;;13.95;2.80;;;33.60;67.90;;;;;;5050335;28;20103;-84
2022/06/17 12:38:36;;;;;;;11.60;2.55;;;33.60;68.80;;;;;;5041470;28;20406;-80
2022/06/17 12:41:23;;;;;;;9.57;2.70;;;33.70;68.20;;;;;;5054657;28;20025;-77
2022/06/17 12:44:20;;;;;;;4.90;2.88;;;33.80;69.30;;;;;;5054080;28;20048;-79
2022/06/17 12:46:49;;;;;;;10.90;2.58;;;33.80;68.10;;;;;;5039681;28;20065;-79
2022/06/17 12:55:32;;;;;;;7.32;2.78;;;33.90;66.90;;;;;;5051501;28;19958;-84
2022/06/17 12:58:17;;;;;;;7.72;2.30;;;33.80;68.10;;;;;;5044991;28;20036;-88
2022/06/17 13:00:48;;;;;;;7.75;2.67;;;33.60;68.30;;;;;;5053302;28;20222;-81
2022/06/17 13:03:52;;;;;;;7.70;2.42;;;33.60;69.30;;;;;;5053219;28;20020;-81
2022/06/17 13:06:45;;;;;;;13.30;2.72;;;33.60;69.20;;;;;;5051549;28;20045;-82
2022/06/17 13:09:32;;;;;;;7.70;2.95;;;33.50;68.60;;;;;;5045162;28;20033;-82
2022/06/17 13:12:12;;;;;;;14.88;2.75;;;33.20;69.60;;;;;;5043605;28;20065;-83
2022/06/17 13:14:48;;;;;;;21.47;4.47;;;33.00;74.40;;;;;;5052956;28;20018;-79
2022/06/17 13:17:28;;;;;;;40.15;6.32;;;32.80;80.60;;;;;;5051493;28;20021;-83
2022/06/17 13:20:09;;;;;;;20.95;4.28;;;32.10;88.70;;;;;;5048065;28;20112;-79
2022/06/17 13:22:45;;;;;;;12.48;4.03;;;31.00;90.00;;;;;;5034396;28;20020;-79
2022/06/17 13:25:19;;;;;;;15.30;3.50;;;29.50;90.00;;;;;;5033282;28;20476;-81
2022/06/17 13:28:00;;;;;;;8.88;3.88;;;28.50;89.70;;;;;;5038510;28;20033;-80
2022/06/17 13:30:32;;;;;;;17.13;3.00;;;28.00;90.30;;;;;;5048689;28;20475;-79
2022/06/17 13:33:23;;;;;;;9.23;2.67;;;27.80;87.40;;;;;;5041794;28;20099;-85